Time;durP1;ratioP1;P1;durP2;ratioP2;P2;SDS_P1;SDS_P2;PMS_P1;PMS_P2;Temp;Humidity;BMP_temperature;BMP_pressure;BME280_temperature;BME280_humidity;BME280_pressure;Samples;Min_cycle;Max_cycle;Signal;HPM_P1;HPM_P2
2024/03/07 00:02:06;;;;;;;;;;;;;;;15.89;46.13;100978.84;4960859;29;1130;-50
2024/03/07 00:04:31;;;;;;;;;;;;;;;15.63;46.89;100976.09;4950531;29;1930;-52
2024/03/07 00:06:57;;;;;;;;;;;;;;;15.44;47.46;100971.16;4957665;29;1038;-52
2024/03/07 00:09:24;;;;;;;;;;;;;;;15.27;47.92;100970.44;4956650;28;2135;-53
2024/03/07 00:11:50;;;;;;;;;;;;;;;16.35;45.66;100976.72;4957888;29;1114;-54
2024/03/07 00:14:15;;;;;;;;;;;;;;;17.44;42.97;100978.06;4960440;29;1185;-52
2024/03/07 00:16:41;;;;;;;;;;;;;;;16.96;43.63;100975.22;4947304;29;1141;-52
2024/03/07 00:19:06;;;;;;;;;;;;;;;16.17;45.48;100978.81;4960685;29;1114;-52
2024/03/07 00:21:32;;;;;;;;;;;;;;;15.82;46.56;100976.69;4959636;28;1124;-53
2024/03/07 00:23:57;;;;;;;;;;;;;;;15.58;47.34;100980.03;4949613;29;1914;-50
2024/03/07 00:26:23;;;;;;;;;;;;;;;15.38;47.42;100972.38;4958011;29;986;-51
2024/03/07 00:28:49;;;;;;;;;;;;;;;16.34;45.44;100969.72;4959784;29;1132;-51
2024/03/07 00:31:14;;;;;;;;;;;;;;;17.28;43.16;100973.91;4960406;29;1161;-49
2024/03/07 00:33:40;;;;;;;;;;;;;;;16.34;45.11;100967.06;4959639;29;1057;-50
2024/03/07 00:36:06;;;;;;;;;;;;;;;15.87;46.48;100962.19;4946781;29;1133;-51
2024/03/07 00:38:32;;;;;;;;;;;;;;;15.53;46.91;100965.25;4960364;29;1145;-52
2024/03/07 00:40:59;;;;;;;;;;;;;;;15.99;46.34;100962.34;4959499;29;2364;-49
2024/03/07 00:43:25;;;;;;;;;;;;;;;17.38;43.01;100964.25;4959662;29;1907;-48
2024/03/07 00:45:50;;;;;;;;;;;;;;;16.79;43.93;100960.47;4954460;29;1156;-50
2024/03/07 00:48:16;;;;;;;;;;;;;;;16.12;45.46;100962.34;4952031;29;1054;-48
2024/03/07 00:50:45;;;;;;;;;;;;;;;15.79;46.15;100961.84;4959989;29;1065;-45
2024/03/07 00:53:10;;;;;;;;;;;;;;;15.50;47.07;100960.16;4959622;29;1092;-50
2024/03/07 00:55:36;;;;;;;;;;;;;;;15.74;46.81;100956.84;4959220;29;1194;-50
2024/03/07 00:58:04;;;;;;;;;;;;;;;17.21;43.43;100956.69;4958833;28;1034;-55
2024/03/07 01:00:29;;;;;;;;;;;;;;;16.68;44.22;100955.91;4942757;29;1066;-50
2024/03/07 01:02:56;;;;;;;;;;;;;;;15.99;45.89;100951.72;4959663;29;986;-48
2024/03/07 01:05:22;;;;;;;;;;;;;;;15.73;46.34;100952.47;4959311;29;1907;-53
2024/03/07 01:07:47;;;;;;;;;;;;;;;15.51;47.06;100950.41;4959251;29;1018;-51
2024/03/07 01:10:16;;;;;;;;;;;;;;;15.33;47.28;100958.56;4956041;29;2357;-51
2024/03/07 01:12:43;;;;;;;;;;;;;;;16.84;44.17;100946.84;4959291;29;1137;-49
2024/03/07 01:15:10;;;;;;;;;;;;;;;17.32;42.74;100956.75;4959216;29;1085;-51
2024/03/07 01:17:35;;;;;;;;;;;;;;;16.33;44.62;100954.72;4958976;29;1073;-48
2024/03/07 01:20:01;;;;;;;;;;;;;;;15.91;45.84;100957.53;4959152;29;1125;-53
2024/03/07 01:22:27;;;;;;;;;;;;;;;15.67;46.40;100955.53;4951572;29;1091;-53
2024/03/07 01:24:52;;;;;;;;;;;;;;;15.58;46.74;100954.34;4957904;29;1902;-52
2024/03/07 01:27:18;;;;;;;;;;;;;;;17.05;43.45;100962.22;4959043;29;1053;-50
2024/03/07 01:29:44;;;;;;;;;;;;;;;17.26;42.84;100967.84;4958829;29;1029;-49
2024/03/07 01:32:10;;;;;;;;;;;;;;;16.38;44.51;100960.56;4958644;28;1069;-46
2024/03/07 01:34:35;;;;;;;;;;;;;;;15.90;46.01;100967.28;4958365;29;1049;-48
2024/03/07 01:37:01;;;;;;;;;;;;;;;15.60;46.43;100965.69;4958749;29;1247;-49
2024/03/07 01:39:27;;;;;;;;;;;;;;;15.38;47.25;100959.13;4959016;29;2418;-47
2024/03/07 01:41:52;;;;;;;;;;;;;;;16.64;44.51;100960.59;4958748;29;1049;-50
2024/03/07 01:44:18;;;;;;;;;;;;;;;17.31;42.75;100962.19;4936421;29;1906;-51
2024/03/07 01:46:44;;;;;;;;;;;;;;;16.32;44.83;100962.81;4942859;29;1039;-52
2024/03/07 01:49:09;;;;;;;;;;;;;;;15.82;45.99;100960.78;4952675;29;1162;-50
2024/03/07 01:51:36;;;;;;;;;;;;;;;15.62;46.33;100961.16;4934568;29;1118;-51
2024/03/07 01:54:02;;;;;;;;;;;;;;;15.45;46.69;100958.75;4958349;29;1147;-53
2024/03/07 01:56:28;;;;;;;;;;;;;;;16.49;44.73;100967.81;4941572;29;1086;-51
2024/03/07 01:58:53;;;;;;;;;;;;;;;17.32;42.66;100969.19;4958370;29;1061;-51
2024/03/07 02:01:19;;;;;;;;;;;;;;;16.30;44.76;100962.06;4958677;29;1013;-52
2024/03/07 02:03:44;;;;;;;;;;;;;;;15.88;45.82;100971.00;4945743;29;1906;-51
2024/03/07 02:06:11;;;;;;;;;;;;;;;15.63;46.11;100965.50;4958094;29;1130;-51
2024/03/07 02:08:37;;;;;;;;;;;;;;;15.58;46.87;100962.28;4957965;29;1021;-51
2024/03/07 02:11:03;;;;;;;;;;;;;;;17.18;43.09;100964.88;4957813;29;2615;-52
2024/03/07 02:13:28;;;;;;;;;;;;;;;17.06;43.05;100964.78;4952404;29;1113;-53
2024/03/07 02:15:53;;;;;;;;;;;;;;;16.24;44.75;100960.69;4950097;29;820;-53
2024/03/07 02:18:19;;;;;;;;;;;;;;;15.86;45.74;100968.44;4958131;29;1077;-49
2024/03/07 02:20:48;;;;;;;;;;;;;;;15.60;46.60;100967.53;4958217;29;964;-50
2024/03/07 02:23:14;;;;;;;;;;;;;;;15.42;46.86;100965.09;4957922;29;1018;-50
2024/03/07 02:25:40;;;;;;;;;;;;;;;16.11;45.74;100974.81;4958341;29;1926;-51
2024/03/07 02:28:05;;;;;;;;;;;;;;;17.36;42.68;100976.00;4958492;29;1018;-51
2024/03/07 02:30:34;;;;;;;;;;;;;;;16.71;43.90;100976.09;4957925;29;1042;-51
2024/03/07 02:33:06;;;;;;;;;;;;;;;16.08;45.19;100974.97;4957973;29;1218;-51
2024/03/07 02:35:33;;;;;;;;;;;;;;;15.77;45.80;100961.09;4957836;29;1041;-50
2024/03/07 02:37:58;;;;;;;;;;;;;;;15.46;46.78;100961.31;4957877;29;1090;-48
2024/03/07 02:40:24;;;;;;;;;;;;;;;16.30;45.07;100976.19;4940643;29;2335;-48
2024/03/07 02:42:49;;;;;;;;;;;;;;;17.42;42.34;100974.66;4958298;29;1089;-50
2024/03/07 02:45:16;;;;;;;;;;;;;;;16.50;44.13;100976.59;4948110;28;1906;-50
2024/03/07 02:47:42;;;;;;;;;;;;;;;15.88;45.80;100974.47;4953700;29;1030;-51
2024/03/07 02:50:09;;;;;;;;;;;;;;;15.58;46.21;100977.38;4961472;28;1096;-51
2024/03/07 02:52:34;;;;;;;;;;;;;;;15.46;46.47;100971.91;4961916;29;1144;-50
2024/03/07 02:55:00;;;;;;;;;;;;;;;15.25;47.12;100976.78;4961578;29;1280;-51
2024/03/07 02:57:25;;;;;;;;;;;;;;;16.67;44.17;100977.25;4961420;29;1045;-50
2024/03/07 02:59:51;;;;;;;;;;;;;;;17.60;42.00;100978.66;4961465;29;827;-51
2024/03/07 03:02:16;;;;;;;;;;;;;;;16.69;43.64;100976.19;4961212;29;1045;-50
2024/03/07 03:04:42;;;;;;;;;;;;;;;16.06;45.18;100982.22;4961733;29;1997;-50
2024/03/07 03:07:08;;;;;;;;;;;;;;;15.72;46.02;100977.31;4944557;29;1086;-51
2024/03/07 03:09:33;;;;;;;;;;;;;;;15.51;46.71;100988.38;4961331;29;2661;-50
2024/03/07 03:11:59;;;;;;;;;;;;;;;15.32;47.11;100986.03;4953412;29;1038;-51
2024/03/07 03:14:24;;;;;;;;;;;;;;;16.80;43.87;100983.41;4960422;29;1086;-52
2024/03/07 03:16:50;;;;;;;;;;;;;;;17.41;42.18;100984.47;4961297;29;1140;-50
2024/03/07 03:19:15;;;;;;;;;;;;;;;16.36;44.49;100982.88;4961413;29;1121;-55
2024/03/07 03:21:42;;;;;;;;;;;;;;;15.89;45.51;100984.16;4961135;29;1185;-49
2024/03/07 03:24:07;;;;;;;;;;;;;;;15.67;45.92;100982.06;4949390;29;1894;-56
2024/03/07 03:26:33;;;;;;;;;;;;;;;15.38;46.86;100982.16;4960488;29;1067;-55
2024/03/07 03:28:58;;;;;;;;;;;;;;;16.58;44.26;100984.06;4944239;29;1030;-52
2024/03/07 03:31:24;;;;;;;;;;;;;;;17.61;42.03;100990.16;4960755;29;1148;-51
2024/03/07 03:33:50;;;;;;;;;;;;;;;16.67;43.50;100993.19;4961226;29;1125;-53
2024/03/07 03:36:16;;;;;;;;;;;;;;;16.11;45.25;100989.88;4935464;29;1074;-54
2024/03/07 03:38:42;;;;;;;;;;;;;;;15.76;45.72;100992.09;4960940;29;1049;-56
2024/03/07 03:41:07;;;;;;;;;;;;;;;15.55;46.21;100991.66;4960591;29;2471;-56
2024/03/07 03:43:33;;;;;;;;;;;;;;;16.15;45.42;100991.34;4961211;29;1979;-55
2024/03/07 03:45:58;;;;;;;;;;;;;;;17.39;42.32;100991.72;4960859;29;1072;-49
2024/03/07 03:48:24;;;;;;;;;;;;;;;16.74;43.42;100987.34;4958060;29;980;-52
2024/03/07 03:50:49;;;;;;;;;;;;;;;16.06;45.06;100991.97;4960478;29;1108;-52
2024/03/07 03:53:15;;;;;;;;;;;;;;;15.78;45.56;100990.16;4960561;29;1061;-50
2024/03/07 03:55:40;;;;;;;;;;;;;;;15.55;45.98;100991.66;4960138;28;1082;-50
2024/03/07 03:58:06;;;;;;;;;;;;;;;16.06;45.31;101000.78;4960833;29;1105;-49
2024/03/07 04:00:31;;;;;;;;;;;;;;;17.37;42.40;100991.84;4951150;29;1157;-51
2024/03/07 04:02:57;;;;;;;;;;;;;;;16.74;43.54;100991.81;4960599;29;1098;-49
2024/03/07 04:05:22;;;;;;;;;;;;;;;16.05;45.18;100980.50;4960363;29;1907;-51
2024/03/07 04:07:48;;;;;;;;;;;;;;;15.73;45.66;100981.66;4960291;29;1090;-47
2024/03/07 04:10:15;;;;;;;;;;;;;;;15.55;46.26;100981.91;4960444;29;2577;-50
2024/03/07 04:12:41;;;;;;;;;;;;;;;15.35;46.72;100987.66;4960251;28;904;-49
2024/03/07 04:15:07;;;;;;;;;;;;;;;16.70;43.97;100990.34;4960435;29;1157;-50
2024/03/07 04:17:36;;;;;;;;;;;;;;;17.40;42.04;100997.91;4960371;29;1085;-47
2024/03/07 04:20:05;;;;;;;;;;;;;;;16.35;44.29;100992.66;4960437;29;1058;-47
2024/03/07 04:22:31;;;;;;;;;;;;;;;15.89;45.59;100993.91;4960186;29;1081;-46
2024/03/07 04:24:56;;;;;;;;;;;;;;;15.58;45.94;100995.94;4960131;29;1910;-50
2024/03/07 04:27:22;;;;;;;;;;;;;;;15.47;46.32;100997.47;4960306;29;1098;-49
2024/03/07 04:29:47;;;;;;;;;;;;;;;16.89;43.55;100998.72;4947443;29;1109;-49
2024/03/07 04:32:13;;;;;;;;;;;;;;;17.32;42.12;100995.78;4960108;29;1115;-49
2024/03/07 04:34:39;;;;;;;;;;;;;;;16.40;44.31;101001.16;4959308;29;1101;-48
2024/03/07 04:37:04;;;;;;;;;;;;;;;15.91;45.49;100997.31;4955271;29;955;-45
2024/03/07 04:39:33;;;;;;;;;;;;;;;15.65;45.71;100997.22;4959474;29;2536;-50
2024/03/07 04:42:02;;;;;;;;;;;;;;;15.42;46.30;100999.56;4960084;29;1121;-49
2024/03/07 04:44:28;;;;;;;;;;;;;;;16.03;45.33;100999.19;4951066;29;1902;-52
2024/03/07 04:46:56;;;;;;;;;;;;;;;17.34;42.24;101007.16;4959893;29;1053;-50
2024/03/07 04:49:25;;;;;;;;;;;;;;;16.53;44.27;101009.13;4958716;29;1080;-51
2024/03/07 04:51:53;;;;;;;;;;;;;;;15.91;45.45;101005.28;4959743;29;1027;-54
2024/03/07 04:54:19;;;;;;;;;;;;;;;15.62;46.00;101014.19;4959415;29;1346;-47
2024/03/07 04:56:48;;;;;;;;;;;;;;;16.11;45.18;101011.09;4942424;29;1109;-49
2024/03/07 04:59:13;;;;;;;;;;;;;;;17.43;42.44;101021.59;4959964;29;1213;-56
2024/03/07 05:01:42;;;;;;;;;;;;;;;16.67;43.67;101019.75;4937327;29;1217;-54
2024/03/07 05:04:08;;;;;;;;;;;;;;;16.08;45.03;101027.22;4959430;29;1910;-51
2024/03/07 05:06:33;;;;;;;;;;;;;;;15.71;46.02;101022.50;4942677;29;1038;-51
2024/03/07 05:09:00;;;;;;;;;;;;;;;15.51;46.24;101030.81;4958601;28;2540;-49
2024/03/07 05:11:26;;;;;;;;;;;;;;;16.77;44.09;101029.66;4957540;29;1098;-52
2024/03/07 05:13:51;;;;;;;;;;;;;;;17.15;42.93;101031.56;4959178;29;1101;-55
2024/03/07 05:16:17;;;;;;;;;;;;;;;15.54;46.67;101021.78;4958919;29;1061;-53
2024/03/07 05:18:43;;;;;;;;;;;;;;;15.12;47.17;101024.41;4959233;29;1100;-53
2024/03/07 05:21:37;;;;;;;;;;;;;;;16.09;45.57;101028.91;4959256;29;1065;-54
2024/03/07 05:23:54;;;;;;;;;;;;;;;15.10;47.30;101028.97;4957237;29;1985;-49
2024/03/07 05:26:19;;;;;;;;;;;;;;;15.50;47.64;101033.53;4958583;29;1171;-51
2024/03/07 05:28:45;;;;;;;;;;;;;;;16.23;45.39;101041.28;4956773;28;2370;-51
2024/03/07 05:31:12;;;;;;;;;;;;;;;15.52;47.73;101036.94;4948865;29;1185;-53
2024/03/07 05:33:38;;;;;;;;;;;;;;;17.51;43.12;101043.16;4956674;29;1095;-52
2024/03/07 05:36:14;;;;;;;;;;;;;;;15.99;45.88;101037.50;4954041;29;946;-53
2024/03/07 05:38:43;;;;;;;;;;;;;;;15.36;46.89;101035.28;4957773;29;1046;-49
2024/03/07 05:41:14;;;;;;;;;;;;;;;16.67;45.39;101041.00;4958841;29;1188;-54
2024/03/07 05:43:40;;;;;;;;;;;;;;;15.65;46.80;101037.00;4958469;29;1911;-55
2024/03/07 05:46:06;;;;;;;;;;;;;;;15.21;47.00;101039.75;4941906;29;1042;-51
2024/03/07 05:48:35;;;;;;;;;;;;;;;16.47;45.99;101046.72;4947048;29;942;-54
2024/03/07 05:51:01;;;;;;;;;;;;;;;15.69;46.73;101042.97;4941450;29;1128;-54
2024/03/07 05:53:26;;;;;;;;;;;;;;;15.23;46.92;101050.25;4958550;29;1207;-53
2024/03/07 05:55:52;;;;;;;;;;;;;;;15.12;46.46;101057.06;4958204;29;1066;-51
2024/03/07 05:58:19;;;;;;;;;;;;;;;16.46;45.47;101052.16;4958658;29;1141;-51
2024/03/07 06:00:49;;;;;;;;;;;;;;;15.31;47.41;101055.91;4950082;29;1189;-51
2024/03/07 06:03:19;;;;;;;;;;;;;;;16.53;46.07;101053.44;4946533;29;1081;-49
2024/03/07 06:05:51;;;;;;;;;;;;;;;16.14;45.99;101062.16;4958365;29;1971;-53
2024/03/07 06:08:17;;;;;;;;;;;;;;;15.40;47.14;101063.28;4925825;29;1043;-52
2024/03/07 06:10:45;;;;;;;;;;;;;;;16.95;44.73;101063.03;4958514;29;1053;-51
2024/03/07 06:13:12;;;;;;;;;;;;;;;15.71;46.68;101063.16;4955706;29;965;-50
2024/03/07 06:15:40;;;;;;;;;;;;;;;16.09;47.28;101068.72;4958186;29;1105;-51
2024/03/07 06:18:08;;;;;;;;;;;;;;;16.27;45.77;101074.63;4958095;29;1148;-49
2024/03/07 06:20:34;;;;;;;;;;;;;;;17.00;45.00;101068.84;4958130;28;1064;-53
2024/03/07 06:23:03;;;;;;;;;;;;;;;18.34;42.07;101077.97;4958442;29;1085;-54
2024/03/07 06:25:50;;;;;;;;;;;;;;;16.51;45.70;101071.28;4958022;29;1912;-50
2024/03/07 06:28:15;;;;;;;;;;;;;;;15.84;46.30;101078.25;4958100;29;1264;-50
2024/03/07 06:30:42;;;;;;;;;;;;;;;15.59;46.28;101080.69;4958208;28;1065;-50
2024/03/07 06:33:08;;;;;;;;;;;;;;;16.20;46.29;101083.97;4958346;29;1033;-51
2024/03/07 06:35:42;;;;;;;;;;;;;;;15.83;47.13;101077.38;4958196;29;1204;-48
2024/03/07 06:38:09;;;;;;;;;;;;;;;17.91;43.03;101079.31;4955759;29;840;-52
2024/03/07 06:40:37;;;;;;;;;;;;;;;16.32;45.85;101076.97;4957282;29;1078;-54
2024/03/07 06:43:12;;;;;;;;;;;;;;;15.81;46.52;101068.72;4929749;29;1071;-51
2024/03/07 06:45:38;;;;;;;;;;;;;;;17.72;43.68;101077.16;4957860;29;1906;-52
2024/03/07 06:48:09;;;;;;;;;;;;;;;16.23;46.34;101063.34;4957841;29;1084;-49
2024/03/07 06:50:35;;;;;;;;;;;;;;;15.71;46.54;101060.50;4958138;29;1066;-49
2024/03/07 06:53:01;;;;;;;;;;;;;;;15.52;46.42;101056.34;4958152;29;1081;-51
2024/03/07 06:55:27;;;;;;;;;;;;;;;16.52;46.39;101063.22;4957878;29;999;-52
2024/03/07 06:57:53;;;;;;;;;;;;;;;16.19;46.45;101058.34;4957517;28;1041;-53
2024/03/07 07:00:19;;;;;;;;;;;;;;;15.54;47.20;101065.06;4957973;29;1069;-52
2024/03/07 07:02:46;;;;;;;;;;;;;;;15.45;46.93;101060.34;4957776;29;1165;-51
2024/03/07 07:05:11;;;;;;;;;;;;;;;16.62;46.43;101075.84;4957502;29;1887;-48
2024/03/07 07:07:37;;;;;;;;;;;;;;;15.73;46.99;101066.53;4957903;29;1042;-50
2024/03/07 07:10:03;;;;;;;;;;;;;;;15.38;47.06;101059.88;4957483;29;1030;-51
2024/03/07 07:12:29;;;;;;;;;;;;;;;15.22;46.35;101064.44;4957897;29;1054;-47
2024/03/07 07:14:55;;;;;;;;;;;;;;;15.08;46.69;101068.78;4945457;29;1157;-49
2024/03/07 07:17:20;;;;;;;;;;;;;;;16.31;46.41;101065.50;4957680;29;1148;-47
2024/03/07 07:19:46;;;;;;;;;;;;;;;15.43;47.38;101073.69;4957288;29;1061;-49
2024/03/07 07:22:12;;;;;;;;;;;;;;;16.75;46.17;101068.75;4957543;29;1049;-49
2024/03/07 07:24:38;;;;;;;;;;;;;;;16.07;46.87;101066.19;4956979;29;1977;-50
2024/03/07 07:27:03;;;;;;;;;;;;;;;15.58;47.60;101072.84;4948673;28;1216;-51
2024/03/07 07:29:29;;;;;;;;;;;;;;;17.13;44.92;101083.00;4953596;29;1152;-49
2024/03/07 07:31:55;;;;;;;;;;;;;;;15.78;47.09;101087.47;4959986;28;1207;-51
2024/03/07 07:34:20;;;;;;;;;;;;;;;15.47;47.34;101073.50;4961383;29;1050;-53
2024/03/07 07:36:46;;;;;;;;;;;;;;;16.09;47.35;101077.53;4961020;29;1125;-47
2024/03/07 07:39:16;;;;;;;;;;;;;;;16.45;46.34;101075.19;4961269;29;1133;-48
2024/03/07 07:41:45;;;;;;;;;;;;;;;15.71;47.00;101075.53;4961334;29;1061;-49
2024/03/07 07:44:10;;;;;;;;;;;;;;;17.63;43.97;101087.50;4960671;29;1907;-51
2024/03/07 07:46:36;;;;;;;;;;;;;;;16.17;46.58;101079.69;4960834;29;1110;-45
2024/03/07 07:49:02;;;;;;;;;;;;;;;15.76;46.91;101084.06;4960635;29;1092;-50
2024/03/07 07:51:28;;;;;;;;;;;;;;;16.55;46.36;101082.56;4960383;29;1053;-47
2024/03/07 07:53:56;;;;;;;;;;;;;;;16.33;46.36;101090.13;4960460;29;1149;-47
2024/03/07 07:56:22;;;;;;;;;;;;;;;15.71;46.82;101096.75;4950314;28;1256;-45
2024/03/07 07:58:48;;;;;;;;;;;;;;;15.30;47.19;101099.25;4958109;29;1073;-46
2024/03/07 08:01:16;;;;;;;;;;;;;;;17.04;45.04;101094.25;4954958;29;1069;-48
2024/03/07 08:03:42;;;;;;;;;;;;;;;15.87;47.07;101092.19;4957939;29;1985;-48
2024/03/07 08:06:08;;;;;;;;;;;;;;;15.67;47.41;101102.28;4961079;29;1181;-47
2024/03/07 08:08:34;;;;;;;;;;;;;;;17.40;44.20;101104.28;4948095;29;1240;-48
2024/03/07 08:10:59;;;;;;;;;;;;;;;15.99;46.54;101102.97;4960134;29;1128;-50
2024/03/07 08:13:25;;;;;;;;;;;;;;;15.59;47.09;101091.28;4959114;29;1181;-47
2024/03/07 08:15:50;;;;;;;;;;;;;;;15.35;46.75;101104.31;4960549;29;1186;-49
2024/03/07 08:18:17;;;;;;;;;;;;;;;16.97;45.31;101103.59;4960157;29;1449;-48
2024/03/07 08:20:43;;;;;;;;;;;;;;;15.72;46.86;101094.00;4960239;29;1105;-48
2024/03/07 08:23:08;;;;;;;;;;;;;;;15.51;46.49;101099.75;4960429;29;1061;-49
2024/03/07 08:25:34;;;;;;;;;;;;;;;16.49;45.99;101099.75;4959628;29;1965;-50
2024/03/07 08:28:00;;;;;;;;;;;;;;;15.57;47.11;101097.63;4943428;29;1061;-45
2024/03/07 08:30:26;;;;;;;;;;;;;;;15.27;47.09;101104.75;4949581;29;1149;-47
2024/03/07 08:32:53;;;;;;;;;;;;;;;15.19;46.80;101110.53;4958187;29;1062;-48
2024/03/07 08:35:18;;;;;;;;;;;;;;;16.86;45.21;101105.22;4960239;29;1200;-45
2024/03/07 08:37:52;;;;;;;;;;;;;;;15.65;46.97;101100.66;4957884;29;1247;-44
2024/03/07 08:40:21;;;;;;;;;;;;;;;16.09;47.31;101103.22;4959913;29;1073;-46
2024/03/07 08:42:47;;;;;;;;;;;;;;;16.84;44.93;101107.13;4958605;28;1153;-49
2024/03/07 08:45:16;;;;;;;;;;;;;;;16.44;46.38;101105.38;4959654;28;1906;-45
2024/03/07 08:47:42;;;;;;;;;;;;;;;18.19;42.45;101109.25;4946936;29;992;-48
2024/03/07 08:50:08;;;;;;;;;;;;;;;16.91;45.04;101106.69;4949055;29;1033;-47
2024/03/07 08:52:36;;;;;;;;;;;;;;;15.99;46.34;101114.44;4959846;29;1181;-44
2024/03/07 08:55:01;;;;;;;;;;;;;;;15.68;46.45;101108.44;4959615;29;1249;-43
2024/03/07 08:57:27;;;;;;;;;;;;;;;16.64;45.88;101124.41;4953016;29;1105;-48
2024/03/07 08:59:52;;;;;;;;;;;;;;;15.70;47.30;101114.47;4953575;29;1085;-49
2024/03/07 09:02:18;;;;;;;;;;;;;;;17.89;43.30;101120.31;4959300;29;851;-49
2024/03/07 09:04:43;;;;;;;;;;;;;;;16.99;44.64;101118.50;4946629;29;1977;-47
2024/03/07 09:07:09;;;;;;;;;;;;;;;16.22;46.13;101116.53;4952797;29;1173;-47
2024/03/07 09:09:34;;;;;;;;;;;;;;;15.82;45.90;101112.84;4953671;29;1129;-47
2024/03/07 09:12:02;;;;;;;;;;;;;;;15.54;46.30;101128.72;4959494;29;1128;-48
2024/03/07 09:14:28;;;;;;;;;;;;;;;15.47;45.63;101121.22;4957412;29;1168;-47
2024/03/07 09:16:54;;;;;;;;;;;;;;;15.54;46.35;101128.72;4959204;29;1172;-45
2024/03/07 09:19:20;;;;;;;;;;;;;;;16.20;45.96;101126.44;4959413;29;1061;-46
2024/03/07 09:21:50;;;;;;;;;;;;;;;15.59;46.18;101131.06;4959124;29;1082;-44
2024/03/07 09:24:16;;;;;;;;;;;;;;;16.18;46.59;101131.84;4958558;29;1910;-45
2024/03/07 09:26:41;;;;;;;;;;;;;;;15.85;46.83;101125.06;4958912;29;1152;-44
2024/03/07 09:29:07;;;;;;;;;;;;;;;15.38;46.84;101125.31;4959021;29;1129;-46
2024/03/07 09:31:32;;;;;;;;;;;;;;;15.63;47.04;101121.13;4941492;29;1066;-50
2024/03/07 09:33:58;;;;;;;;;;;;;;;15.87;46.59;101124.00;4946597;29;1142;-44
2024/03/07 09:36:26;;;;;;;;;;;;;;;15.93;47.09;101136.06;4958675;29;1082;-47
2024/03/07 09:38:53;;;;;;;;;;;;;;;17.50;43.95;101126.56;4929494;29;1061;-48
2024/03/07 09:41:19;;;;;;;;;;;;;;;16.04;46.92;101119.44;4946172;29;1128;-44
2024/03/07 09:43:46;;;;;;;;;;;;;;;15.65;47.39;101120.06;4958802;29;1903;-50
2024/03/07 09:46:12;;;;;;;;;;;;;;;16.33;46.12;101123.81;4941867;29;931;-46
2024/03/07 09:48:38;;;;;;;;;;;;;;;15.59;46.76;101128.41;4941747;29;1124;-47
2024/03/07 09:51:04;;;;;;;;;;;;;;;17.24;44.76;101132.78;4935467;29;835;-48
2024/03/07 09:53:30;;;;;;;;;;;;;;;16.20;46.27;101129.91;4957992;28;1070;-46
2024/03/07 09:55:57;;;;;;;;;;;;;;;15.70;46.68;101132.22;4957956;29;1164;-51
2024/03/07 09:58:22;;;;;;;;;;;;;;;15.47;46.32;101129.16;4958472;29;1094;-46
2024/03/07 10:00:50;;;;;;;;;;;;;;;17.32;44.50;101136.69;4958505;28;1093;-47
2024/03/07 10:03:16;;;;;;;;;;;;;;;16.36;46.00;101134.22;4941435;29;1050;-49
2024/03/07 10:05:42;;;;;;;;;;;;;;;15.81;46.69;101131.50;4941339;29;1910;-43
2024/03/07 10:08:07;;;;;;;;;;;;;;;16.53;46.20;101133.13;4941439;29;1078;-44
2024/03/07 10:10:33;;;;;;;;;;;;;;;15.81;47.07;101124.41;4958792;29;942;-46
2024/03/07 10:12:59;;;;;;;;;;;;;;;15.43;47.00;101126.72;4958050;29;1160;-44
2024/03/07 10:15:31;;;;;;;;;;;;;;;16.73;46.01;101122.94;4950925;29;952;-47
2024/03/07 10:17:56;;;;;;;;;;;;;;;16.00;46.86;101125.91;4940984;29;1156;-46
2024/03/07 10:20:22;;;;;;;;;;;;;;;15.58;46.56;101113.44;4950126;29;1201;-47
2024/03/07 10:22:51;;;;;;;;;;;;;;;15.39;47.30;101109.31;4953646;29;1145;-44
2024/03/07 10:25:17;;;;;;;;;;;;;;;16.51;45.70;101109.31;4957941;29;1905;-44
2024/03/07 10:27:44;;;;;;;;;;;;;;;15.69;47.00;101102.16;4945445;29;863;-45
2024/03/07 10:30:13;;;;;;;;;;;;;;;17.20;44.60;101112.69;4958428;28;1254;-46
2024/03/07 10:32:41;;;;;;;;;;;;;;;16.24;45.92;101109.34;4941621;29;1180;-43
2024/03/07 10:35:07;;;;;;;;;;;;;;;15.68;46.41;101103.13;4957779;29;1131;-48
2024/03/07 10:37:35;;;;;;;;;;;;;;;16.18;46.70;101102.63;4955185;29;1173;-44
2024/03/07 10:40:00;;;;;;;;;;;;;;;17.17;44.01;101098.75;4947118;29;1007;-45
2024/03/07 10:42:27;;;;;;;;;;;;;;;15.97;46.35;101099.53;4938081;29;1168;-44
2024/03/07 10:44:53;;;;;;;;;;;;;;;15.62;46.77;101095.53;4933796;29;1907;-44
2024/03/07 10:47:19;;;;;;;;;;;;;;;16.84;45.27;101106.25;4940919;29;1006;-46
2024/03/07 10:50:04;;;;;;;;;;;;;;;15.81;46.53;101100.53;4957941;29;1041;-48
2024/03/07 10:52:39;;;;;;;;;;;;;;;15.52;47.30;101093.47;4957891;29;1511;-44
2024/03/07 10:55:25;;;;;;;;;;;;;;;16.37;45.86;101104.06;4944844;29;1300;-44
2024/03/07 10:57:55;;;;;;;;;;;;;;;16.04;46.74;101098.22;4957947;29;1167;-48
2024/03/07 11:00:46;;;;;;;;;;;;;;;17.74;42.78;101097.38;4940673;29;1136;-45
2024/03/07 11:03:11;;;;;;;;;;;;;;;16.08;46.16;101096.22;4957594;29;1174;-43
2024/03/07 11:05:37;;;;;;;;;;;;;;;15.74;46.10;101086.81;4958108;28;1903;-46
2024/03/07 11:08:12;;;;;;;;;;;;;;;15.58;45.98;101088.75;4961406;29;1173;-47
2024/03/07 11:10:37;;;;;;;;;;;;;;;15.35;45.58;101094.53;4961385;29;1093;-45
2024/03/07 11:13:03;;;;;;;;;;;;;;;17.00;44.72;101090.97;4943271;29;1105;-43
2024/03/07 11:15:30;;;;;;;;;;;;;;;15.91;46.38;101092.84;4953164;29;859;-46
2024/03/07 11:17:55;;;;;;;;;;;;;;;15.61;46.21;101091.19;4961098;29;1038;-45
2024/03/07 11:20:21;;;;;;;;;;;;;;;15.23;46.57;101087.34;4944427;29;1038;-46
2024/03/07 11:22:47;;;;;;;;;;;;;;;16.70;45.27;101093.94;4961542;29;1046;-45
2024/03/07 11:25:12;;;;;;;;;;;;;;;16.62;45.15;101092.66;4961153;29;1985;-47
2024/03/07 11:27:42;;;;;;;;;;;;;;;15.69;46.66;101090.69;4960992;29;1116;-45
2024/03/07 11:30:08;;;;;;;;;;;;;;;15.47;46.32;101081.44;4961673;29;1145;-47
2024/03/07 11:32:34;;;;;;;;;;;;;;;17.02;44.67;101085.53;4931405;29;1206;-44
2024/03/07 11:35:00;;;;;;;;;;;;;;;15.91;45.95;101085.72;4943690;29;1105;-43
2024/03/07 11:37:48;;;;;;;;;;;;;;;17.83;42.75;101089.69;4943571;29;1393;-48
2024/03/07 11:40:20;;;;;;;;;;;;;;;17.10;43.64;101091.19;4956942;29;851;-41
2024/03/07 11:42:48;;;;;;;;;;;;;;;16.14;45.65;101087.84;4958126;29;1197;-49
2024/03/07 11:45:28;;;;;;;;;;;;;;;15.82;45.56;101083.66;4961129;29;1910;-47
2024/03/07 11:48:15;;;;;;;;;;;;;;;16.08;46.13;101091.75;4949672;29;1146;-45
2024/03/07 11:50:41;;;;;;;;;;;;;;;16.02;45.96;101086.84;4960761;29;1197;-44
2024/03/07 11:53:08;;;;;;;;;;;;;;;16.03;46.94;101080.63;4961108;29;1164;-47
2024/03/07 11:55:41;;;;;;;;;;;;;;;17.28;43.37;101082.06;4947711;29;1193;-43
2024/03/07 11:58:12;;;;;;;;;;;;;;;16.03;45.65;101083.25;4961026;29;1121;-47
2024/03/07 12:00:42;;;;;;;;;;;;;;;16.13;46.43;101081.69;4960571;29;1114;-43
2024/03/07 12:03:13;;;;;;;;;;;;;;;16.57;44.76;101085.94;4951395;29;1204;-44
2024/03/07 12:05:41;;;;;;;;;;;;;;;15.84;46.16;101081.78;4960639;29;1914;-46
2024/03/07 12:08:07;;;;;;;;;;;;;;;15.72;46.21;101088.72;4960455;29;1046;-44
2024/03/07 12:10:33;;;;;;;;;;;;;;;16.62;44.87;101086.47;4943529;29;1042;-46
2024/03/07 12:13:01;;;;;;;;;;;;;;;15.70;46.16;101087.13;4959604;28;1097;-45
2024/03/07 12:15:26;;;;;;;;;;;;;;;16.98;44.44;101087.56;4948582;29;1113;-45
2024/03/07 12:17:53;;;;;;;;;;;;;;;16.06;45.40;101087.50;4959595;28;1085;-46
2024/03/07 12:20:30;;;;;;;;;;;;;;;15.67;45.91;101081.06;4943543;29;1066;-46
2024/03/07 12:23:07;;;;;;;;;;;;;;;15.72;46.26;101082.53;4960467;29;1184;-44
2024/03/07 12:25:34;;;;;;;;;;;;;;;15.93;46.08;101090.09;4949723;29;1891;-47
2024/03/07 12:28:02;;;;;;;;;;;;;;;15.58;46.26;101094.03;4936415;29;1117;-48
2024/03/07 12:30:49;;;;;;;;;;;;;;;17.05;44.42;101087.97;4952961;29;1062;-48
2024/03/07 12:33:16;;;;;;;;;;;;;;;15.78;46.22;101087.47;4960126;29;1022;-46
2024/03/07 12:35:42;;;;;;;;;;;;;;;15.50;45.90;101082.13;4959964;29;1030;-46
2024/03/07 12:38:10;;;;;;;;;;;;;;;15.87;46.54;101086.88;4943068;29;1149;-43
2024/03/07 12:40:37;;;;;;;;;;;;;;;16.35;45.25;101084.75;4942553;29;882;-47
2024/03/07 12:43:04;;;;;;;;;;;;;;;15.60;45.91;101081.56;4959886;29;1104;-48
2024/03/07 12:45:33;;;;;;;;;;;;;;;17.29;43.51;101087.25;4945572;29;1994;-48
2024/03/07 12:48:04;;;;;;;;;;;;;;;16.25;45.32;101084.47;4943215;29;1121;-46